createdAt,value
2019-01-27T00:02:26.380Z,25.10
2019-01-27T00:04:57.830Z,25.93
2019-01-27T00:07:29.260Z,31.90
2019-01-27T00:10:00.692Z,28.23
2019-01-27T00:12:32.319Z,30.10
2019-01-27T00:15:04.831Z,34.70
2019-01-27T00:17:36.774Z,30.13
2019-01-27T00:20:10.202Z,22.17
2019-01-27T00:22:41.710Z,29.23
2019-01-27T00:25:13.046Z,30.80
2019-01-27T00:27:44.476Z,32.63
2019-01-27T00:30:21.761Z,28.97
2019-01-27T00:32:53.160Z,22.93
2019-01-27T00:35:26.061Z,30.47
2019-01-27T00:37:57.528Z,30.90
2019-01-27T00:40:28.969Z,30.37
2019-01-27T00:43:00.395Z,32.63
2019-01-27T00:45:31.836Z,25.43
2019-01-27T00:48:03.264Z,26.40
2019-01-27T00:50:34.804Z,23.60
2019-01-27T00:53:06.333Z,25.77
2019-01-27T00:55:37.780Z,18.53
2019-01-27T00:58:09.306Z,20.53
2019-01-27T01:00:42.840Z,21.53
2019-01-27T01:03:14.248Z,17.40
2019-01-27T01:05:48.854Z,17.80
2019-01-27T01:08:22.601Z,17.63
2019-01-27T01:10:54.031Z,20.40
2019-01-27T01:13:25.459Z,18.67
2019-01-27T01:15:56.914Z,21.80
2019-01-27T01:18:28.301Z,15.70
2019-01-27T01:20:59.749Z,18.63
2019-01-27T01:23:31.173Z,18.47
2019-01-27T01:26:02.611Z,16.57
2019-01-27T01:28:34.104Z,16.70
2019-01-27T01:31:05.804Z,14.67
2019-01-27T01:33:40.336Z,14.03
2019-01-27T01:36:11.822Z,18.67
2019-01-27T01:38:43.220Z,15.80
2019-01-27T01:41:14.752Z,16.53
2019-01-27T01:43:46.200Z,22.13
2019-01-27T01:46:17.644Z,14.37
2019-01-27T01:48:52.134Z,16.80
2019-01-27T01:51:23.572Z,16.50
2019-01-27T01:53:54.904Z,18.20
2019-01-27T01:56:26.354Z,23.10
2019-01-27T01:58:57.771Z,16.83
2019-01-27T02:01:29.198Z,18.03
2019-01-27T02:04:00.625Z,14.97
2019-01-27T02:06:34.266Z,20.37
2019-01-27T02:09:10.747Z,21.80
2019-01-27T02:11:42.172Z,17.00
2019-01-27T02:14:13.616Z,16.60
2019-01-27T02:16:45.209Z,16.30
2019-01-27T02:19:16.586Z,17.30
2019-01-27T02:21:49.282Z,14.20
2019-01-27T02:24:21.210Z,16.67
2019-01-27T02:26:52.628Z,13.47
2019-01-27T02:29:24.037Z,15.87
2019-01-27T02:31:55.504Z,15.40
2019-01-27T02:34:26.836Z,15.80
2019-01-27T02:36:58.300Z,18.80
2019-01-27T02:39:30.019Z,15.27
2019-01-27T02:42:01.464Z,18.60
2019-01-27T02:44:32.893Z,11.00
2019-01-27T02:47:04.561Z,15.93
2019-01-27T02:49:35.960Z,16.03
2019-01-27T02:52:07.488Z,17.87
2019-01-27T02:54:38.887Z,17.07
2019-01-27T02:57:10.343Z,23.00
2019-01-27T02:59:41.953Z,16.87
2019-01-27T03:02:13.397Z,16.83
2019-01-27T03:04:44.832Z,15.87
2019-01-27T03:07:36.112Z,17.33
2019-01-27T03:10:12.808Z,15.63
2019-01-27T03:12:44.321Z,18.07
2019-01-27T03:15:17.655Z,16.60
2019-01-27T03:17:49.092Z,13.37
2019-01-27T03:20:20.505Z,21.63
2019-01-27T03:22:54.012Z,16.27
2019-01-27T03:25:25.442Z,13.07
2019-01-27T03:27:58.484Z,13.53
2019-01-27T03:30:32.253Z,17.67
2019-01-27T03:33:05.422Z,12.40
2019-01-27T03:35:36.781Z,23.37
2019-01-27T03:38:10.000Z,15.03
2019-01-27T03:40:41.400Z,13.27
2019-01-27T03:43:12.880Z,13.33
2019-01-27T03:45:46.046Z,13.23
2019-01-27T03:48:17.837Z,12.93
2019-01-27T03:50:49.234Z,11.40
2019-01-27T03:53:20.683Z,12.43
2019-01-27T03:55:52.075Z,12.00
2019-01-27T03:58:24.480Z,11.23
2019-01-27T04:00:55.804Z,10.57
2019-01-27T04:03:27.238Z,10.60
2019-01-27T04:06:00.274Z,10.50
2019-01-27T04:08:31.835Z,12.27
2019-01-27T04:11:03.244Z,13.20
2019-01-27T04:13:34.676Z,8.93
2019-01-27T04:16:06.231Z,17.40
2019-01-27T04:18:37.800Z,10.93
2019-01-27T04:21:09.211Z,13.70
2019-01-27T04:23:40.684Z,8.20
2019-01-27T04:26:12.085Z,11.37
2019-01-27T04:28:43.526Z,10.20
2019-01-27T04:31:14.912Z,10.27
2019-01-27T04:33:46.347Z,11.13
2019-01-27T04:36:17.767Z,8.27
2019-01-27T04:38:49.219Z,9.30
2019-01-27T04:41:20.670Z,15.07
2019-01-27T04:43:52.007Z,8.10
2019-01-27T04:46:23.417Z,11.00
2019-01-27T04:48:56.353Z,8.23
2019-01-27T04:51:27.753Z,10.10
2019-01-27T04:53:59.160Z,11.17
2019-01-27T04:56:30.579Z,10.60
2019-01-27T04:59:01.936Z,9.77
2019-01-27T05:01:33.261Z,7.63
2019-01-27T05:04:17.327Z,12.97
2019-01-27T05:06:48.784Z,7.70
2019-01-27T05:09:20.204Z,8.50
2019-01-27T05:11:51.595Z,15.57
2019-01-27T05:14:23.035Z,7.97
2019-01-27T05:16:54.467Z,9.57
2019-01-27T05:19:25.902Z,10.13
2019-01-27T05:21:57.324Z,8.90
2019-01-27T05:24:30.350Z,10.23
2019-01-27T05:27:04.099Z,10.17
2019-01-27T05:29:35.533Z,10.43
2019-01-27T05:32:06.877Z,8.80
2019-01-27T05:34:38.320Z,9.33
2019-01-27T05:37:09.746Z,9.27
2019-01-27T05:39:42.274Z,9.07
2019-01-27T05:42:13.672Z,7.83
2019-01-27T05:44:45.047Z,7.77
2019-01-27T05:47:16.357Z,7.43
2019-01-27T05:49:47.809Z,6.87
2019-01-27T05:52:19.205Z,8.97
2019-01-27T05:54:50.719Z,9.70
2019-01-27T05:57:22.136Z,5.67
2019-01-27T05:59:56.359Z,6.47
2019-01-27T06:02:27.763Z,6.77
2019-01-27T06:04:59.211Z,6.77
2019-01-27T06:07:30.624Z,8.40
2019-01-27T06:10:02.081Z,6.80
2019-01-27T06:12:35.085Z,5.33
2019-01-27T06:15:08.196Z,6.23
2019-01-27T06:17:39.607Z,6.03
2019-01-27T06:20:13.019Z,4.93
2019-01-27T06:22:47.221Z,5.20
2019-01-27T06:25:18.675Z,5.20
2019-01-27T06:27:50.098Z,4.97
2019-01-27T06:30:23.925Z,4.37
2019-01-27T06:33:22.562Z,4.00
2019-01-27T06:35:54.009Z,3.67
2019-01-27T06:38:25.499Z,3.30
2019-01-27T06:40:56.941Z,3.43
2019-01-27T06:43:28.336Z,3.10
2019-01-27T06:46:00.189Z,2.83
2019-01-27T06:48:31.601Z,3.30
2019-01-27T06:51:03.157Z,3.50
2019-01-27T06:53:37.339Z,3.10
2019-01-27T06:56:08.945Z,3.10
2019-01-27T06:58:57.899Z,4.30
2019-01-27T07:01:38.117Z,2.83
2019-01-27T07:04:31.445Z,2.97
2019-01-27T07:07:36.936Z,4.50
2019-01-27T07:10:39.382Z,2.00
2019-01-27T07:13:28.140Z,3.73
2019-01-27T07:16:13.253Z,2.97
2019-01-27T07:19:03.575Z,2.90
2019-01-27T07:21:50.971Z,3.50
2019-01-27T07:24:44.157Z,3.63
2019-01-27T07:27:32.934Z,9.00
2019-01-27T07:30:25.962Z,4.33
2019-01-27T07:33:22.493Z,5.23
2019-01-27T07:36:04.646Z,5.73
2019-01-27T07:38:48.688Z,12.60
2019-01-27T07:41:37.527Z,10.40
2019-01-27T07:44:28.828Z,12.80
2019-01-27T07:47:08.888Z,8.73
2019-01-27T07:50:11.266Z,8.57
2019-01-27T07:52:58.576Z,6.20
2019-01-27T07:55:55.384Z,4.60
2019-01-27T07:58:35.822Z,3.90
2019-01-27T08:01:23.481Z,4.63
2019-01-27T08:04:24.217Z,4.17
2019-01-27T08:07:08.314Z,3.57
2019-01-27T08:09:46.926Z,2.97
2019-01-27T08:12:30.960Z,2.80
2019-01-27T08:15:36.417Z,4.40
2019-01-27T08:18:29.683Z,4.43
2019-01-27T08:21:16.702Z,5.37
2019-01-27T08:24:02.777Z,6.00
2019-01-27T08:26:44.487Z,5.20
2019-01-27T08:29:27.175Z,5.30
2019-01-27T08:32:32.491Z,4.77
2019-01-27T08:35:18.973Z,4.17
2019-01-27T08:38:03.585Z,3.33
2019-01-27T08:40:41.908Z,3.30
2019-01-27T08:43:38.351Z,3.40
2019-01-27T08:46:24.339Z,2.97
2019-01-27T08:48:55.754Z,2.70
2019-01-27T08:51:27.241Z,2.70
2019-01-27T08:53:58.761Z,2.50
2019-01-27T08:56:30.212Z,2.07
2019-01-27T08:59:02.866Z,2.43
2019-01-27T09:02:08.383Z,2.40
2019-01-27T09:05:10.752Z,2.60
2019-01-27T09:08:10.997Z,2.13
2019-01-27T09:10:54.430Z,2.27
2019-01-27T09:13:41.114Z,1.97
2019-01-27T09:16:37.184Z,1.93
2019-01-27T09:19:39.489Z,2.10
2019-01-27T09:22:34.478Z,2.37
2019-01-27T09:25:23.590Z,2.93
2019-01-27T09:28:17.861Z,2.60
2019-01-27T09:31:11.678Z,2.63
2019-01-27T09:33:54.354Z,2.50
2019-01-27T09:36:43.338Z,2.00
2019-01-27T09:39:32.528Z,2.27
2019-01-27T09:42:21.487Z,1.60
2019-01-27T09:45:14.165Z,1.77
2019-01-27T09:47:55.063Z,1.60
2019-01-27T09:50:38.353Z,1.67
2019-01-27T09:53:34.478Z,2.17
2019-01-27T09:56:21.663Z,1.90
2019-01-27T09:59:10.451Z,1.63
2019-01-27T10:02:15.703Z,1.77
2019-01-27T10:04:55.119Z,1.80
2019-01-27T10:07:52.880Z,1.57
2019-01-27T10:10:43.305Z,2.13
2019-01-27T10:13:34.354Z,1.50
2019-01-27T10:16:22.606Z,2.30
2019-01-27T10:19:15.549Z,2.10
2019-01-27T10:21:55.201Z,1.60
2019-01-27T10:24:45.798Z,2.00
2019-01-27T10:27:39.168Z,1.10
